createdAt,value
2019-04-28T00:03:06.176Z,95.10
2019-04-28T00:08:57.957Z,94.90
2019-04-28T00:15:11.667Z,95.00
2019-04-28T00:17:53.651Z,95.20
2019-04-28T00:20:46.579Z,94.50
2019-04-28T00:23:42.255Z,94.60
2019-04-28T00:26:21.060Z,94.50
2019-04-28T00:31:51.232Z,93.80
2019-04-28T00:34:21.424Z,94.00
2019-04-28T00:36:57.888Z,94.30
2019-04-28T00:39:26.581Z,94.20
2019-04-28T00:41:55.602Z,94.80
2019-04-28T00:44:32.916Z,94.90
2019-04-28T00:50:04.211Z,94.60
2019-04-28T01:05:02.231Z,94.00
2019-04-28T01:07:34.865Z,93.70
2019-04-28T01:16:42.904Z,94.20
2019-04-28T01:19:37.228Z,94.70
2019-04-28T01:22:11.878Z,93.60
2019-04-28T01:27:47.579Z,94.30
2019-04-28T01:40:02.434Z,94.10
2019-04-28T01:43:22.079Z,94.20
2019-04-28T01:45:06.496Z,94.20
2019-04-28T01:47:50.465Z,93.80
2019-04-28T01:53:13.422Z,94.00
2019-04-28T01:55:43.526Z,94.30
2019-04-28T01:58:27.445Z,93.30
2019-04-28T02:05:01.538Z,94.50
2019-04-28T02:06:32.674Z,94.40
2019-04-28T02:09:01.488Z,94.20
2019-04-28T02:11:30.241Z,94.20
2019-04-28T02:13:59.721Z,93.90
2019-04-28T02:16:31.164Z,94.50
2019-04-28T02:19:11.591Z,94.70
2019-04-28T02:21:52.366Z,94.90
2019-04-28T02:24:34.088Z,95.50
2019-04-28T02:33:13.233Z,95.60
2019-04-28T02:38:51.574Z,95.30
2019-04-28T02:41:35.169Z,95.10
2019-04-28T02:44:14.601Z,96.10
2019-04-28T02:46:50.538Z,96.00
2019-04-28T02:49:22.281Z,95.60
2019-04-28T02:54:43.229Z,96.10
2019-04-28T02:57:13.649Z,96.40
2019-04-28T02:59:54.599Z,96.90
2019-04-28T03:05:15.796Z,96.60
2019-04-28T03:08:05.507Z,97.10
2019-04-28T03:10:41.337Z,96.90
2019-04-28T03:28:41.436Z,96.50
2019-04-28T03:32:04.097Z,96.90
2019-04-28T03:40:18.076Z,97.10
2019-04-28T03:55:34.729Z,97.20
2019-04-28T03:58:43.443Z,97.20
2019-04-28T04:01:55.235Z,97.40
2019-04-28T04:17:11.349Z,97.80
2019-04-28T04:19:50.384Z,97.90
2019-04-28T04:22:21.339Z,97.40
2019-04-28T04:24:52.121Z,97.60
2019-04-28T04:30:15.218Z,98.00
2019-04-28T04:32:44.056Z,98.50
2019-04-28T04:35:12.773Z,98.80
2019-04-28T04:37:42.932Z,98.90
2019-04-28T04:40:13.390Z,99.10
2019-04-28T04:42:41.844Z,98.30
2019-04-28T04:45:10.669Z,98.00
2019-04-28T04:47:40.661Z,98.10
2019-04-28T04:50:11.312Z,98.00
2019-04-28T04:52:42.290Z,98.10
2019-04-28T04:55:11.278Z,97.70
2019-04-28T04:57:41.093Z,98.00
2019-04-28T05:00:11.751Z,97.60
2019-04-28T05:02:51.299Z,98.10
2019-04-28T05:05:23.958Z,97.90
2019-04-28T05:07:52.572Z,97.70
2019-04-28T05:10:21.142Z,98.40
2019-04-28T05:12:51.843Z,98.10
2019-04-28T05:15:22.211Z,97.70
2019-04-28T05:17:51.077Z,97.70
2019-04-28T05:20:23.704Z,97.90
2019-04-28T05:22:56.502Z,98.70
2019-04-28T05:25:30.921Z,99.10
2019-04-28T05:27:59.331Z,98.70
2019-04-28T05:30:34.997Z,98.90
2019-04-28T05:33:03.462Z,98.00
2019-04-28T05:35:35.546Z,98.10
2019-04-28T05:38:03.239Z,99.00
2019-04-28T05:40:32.398Z,99.90
2019-04-28T05:43:01.248Z,99.40
2019-04-28T05:45:32.219Z,99.40
2019-04-28T05:48:01.394Z,99.10
2019-04-28T05:50:34.697Z,98.40
2019-04-28T05:53:13.870Z,98.00
2019-04-28T05:55:44.406Z,97.70
2019-04-28T05:58:19.648Z,97.50
2019-04-28T06:00:49.927Z,97.60
2019-04-28T06:03:23.237Z,96.80
2019-04-28T06:05:51.955Z,96.60
2019-04-28T06:08:22.507Z,96.10
2019-04-28T06:10:51.064Z,96.60
2019-04-28T06:13:20.270Z,95.90
2019-04-28T06:15:49.856Z,95.40
2019-04-28T06:18:18.386Z,95.50
2019-04-28T06:20:46.907Z,95.40
2019-04-28T06:23:34.088Z,95.00
2019-04-28T06:28:41.197Z,95.30
2019-04-28T06:31:10.180Z,95.40
2019-04-28T06:33:38.794Z,95.40
2019-04-28T06:36:07.552Z,94.90
2019-04-28T06:38:37.342Z,95.00
2019-04-28T06:41:05.941Z,94.30
2019-04-28T06:43:34.467Z,94.40
2019-04-28T06:46:04.617Z,93.90
2019-04-28T06:48:33.177Z,94.00
2019-04-28T06:51:01.962Z,93.60
2019-04-28T06:53:30.680Z,93.90
2019-04-28T06:55:59.296Z,93.90
2019-04-28T06:58:32.085Z,93.20
2019-04-28T07:01:02.915Z,92.70
2019-04-28T07:03:33.307Z,91.40
2019-04-28T07:06:02.455Z,91.10
2019-04-28T07:08:30.944Z,91.60
2019-04-28T07:11:03.131Z,91.30
2019-04-28T07:13:32.001Z,90.30
2019-04-28T07:16:00.627Z,88.90
2019-04-28T07:18:29.881Z,87.70
2019-04-28T07:21:20.317Z,84.80
2019-04-28T07:23:48.953Z,82.60
2019-04-28T07:26:24.993Z,82.10
2019-04-28T07:31:41.899Z,78.00
2019-04-28T07:37:05.613Z,82.60
2019-04-28T07:39:36.681Z,80.70
2019-04-28T07:42:09.801Z,77.50
2019-04-28T07:44:41.960Z,71.00
2019-04-28T07:47:11.115Z,69.80
2019-04-28T07:49:43.052Z,70.20
2019-04-28T07:52:23.070Z,73.70
2019-04-28T07:54:52.192Z,72.90
2019-04-28T08:02:59.471Z,70.10
2019-04-28T08:05:28.313Z,67.60
2019-04-28T08:07:57.193Z,68.60
2019-04-28T08:10:32.574Z,69.60
2019-04-28T08:13:22.141Z,70.20
2019-04-28T08:18:38.852Z,72.20
2019-04-28T08:21:12.167Z,70.80
2019-04-28T08:23:46.954Z,68.20
2019-04-28T08:26:08.441Z,69.10
2019-04-28T08:28:37.012Z,69.20
2019-04-28T08:31:08.295Z,68.80
2019-04-28T08:33:38.933Z,72.70
2019-04-28T08:36:08.081Z,75.90
2019-04-28T08:38:38.036Z,78.90
2019-04-28T08:41:16.197Z,84.90
2019-04-28T08:43:44.753Z,80.30
2019-04-28T08:46:18.068Z,74.60
2019-04-28T08:48:47.003Z,76.80
2019-04-28T08:51:20.473Z,76.40
2019-04-28T08:56:46.345Z,63.30
2019-04-28T09:02:04.718Z,59.00
2019-04-28T09:04:33.316Z,58.90
2019-04-28T09:07:11.771Z,59.30
2019-04-28T09:09:45.491Z,60.70
2019-04-28T09:12:14.123Z,61.70
2019-04-28T09:14:53.756Z,57.90
2019-04-28T09:20:20.841Z,59.20
2019-04-28T09:22:50.795Z,59.90
2019-04-28T09:25:20.979Z,61.70
2019-04-28T09:27:49.537Z,64.50
2019-04-28T09:30:28.144Z,65.00
2019-04-28T09:32:57.125Z,68.80
2019-04-28T09:35:26.324Z,70.60
2019-04-28T09:37:58.691Z,71.10
2019-04-28T09:43:19.578Z,69.20
2019-04-28T09:45:50.200Z,66.80
2019-04-28T09:48:20.636Z,71.00
2019-04-28T09:51:16.060Z,68.20
2019-04-28T09:59:32.182Z,63.50
2019-04-28T10:02:55.128Z,62.70
2019-04-28T10:08:07.298Z,59.30
2019-04-28T10:10:47.364Z,56.40
2019-04-28T10:13:36.474Z,56.10
2019-04-28T10:16:08.445Z,57.60
2019-04-28T10:18:40.648Z,56.80
2019-04-28T10:21:27.377Z,55.80
2019-04-28T10:23:56.397Z,56.40
2019-04-28T10:26:25.177Z,58.50
2019-04-28T10:32:01.254Z,58.60
2019-04-28T10:34:30.169Z,59.20
2019-04-28T10:37:09.390Z,58.10
2019-04-28T10:39:53.114Z,54.50
2019-04-28T10:45:54.928Z,53.70
2019-04-28T10:51:24.184Z,50.70
2019-04-28T10:53:52.656Z,53.20
2019-04-28T10:56:21.258Z,55.50
2019-04-28T10:59:08.844Z,55.60
2019-04-28T11:01:55.166Z,52.00
2019-04-28T11:04:42.036Z,52.80
2019-04-28T11:10:16.414Z,56.30
2019-04-28T11:12:49.933Z,54.80
2019-04-28T11:15:39.375Z,55.00
2019-04-28T11:18:12.990Z,55.40
2019-04-28T11:20:42.033Z,49.00
2019-04-28T11:23:14.649Z,50.10
2019-04-28T11:25:43.748Z,51.60
2019-04-28T11:28:12.955Z,54.20
2019-04-28T11:30:41.743Z,55.80
2019-04-28T11:34:05.859Z,57.80
2019-04-28T11:36:17.887Z,57.40
2019-04-28T11:38:51.318Z,58.00
2019-04-28T11:41:24.094Z,62.20
2019-04-28T11:46:46.331Z,63.40
2019-04-28T11:49:15.023Z,63.00
2019-04-28T11:51:44.199Z,64.10
2019-04-28T11:54:12.800Z,64.80
2019-04-28T11:56:54.094Z,65.80
2019-04-28T11:59:23.054Z,68.50
2019-04-28T12:01:55.139Z,69.40
2019-04-28T12:04:42.894Z,70.50
2019-04-28T12:10:03.356Z,77.00
2019-04-28T12:12:27.902Z,74.50
2019-04-28T12:14:58.336Z,75.50
2019-04-28T12:17:46.952Z,70.70
2019-04-28T12:20:25.914Z,69.10
2019-04-28T12:22:56.341Z,66.70
2019-04-28T12:25:29.439Z,66.30
2019-04-28T12:27:58.197Z,67.50
2019-04-28T12:30:26.919Z,63.80
2019-04-28T12:32:59.404Z,64.90
2019-04-28T12:35:46.698Z,64.20
2019-04-28T12:40:57.193Z,63.10
2019-04-28T12:43:43.357Z,62.10
2019-04-28T12:49:11.946Z,62.80
2019-04-28T12:51:40.501Z,65.90
2019-04-28T12:54:11.837Z,68.00
2019-04-28T12:56:40.691Z,68.40
2019-04-28T12:59:13.573Z,69.80
2019-04-28T13:01:56.103Z,72.60
2019-04-28T13:04:29.613Z,73.40
2019-04-28T13:07:08.479Z,79.20
2019-04-28T13:09:40.262Z,84.70
2019-04-28T13:12:09.210Z,87.20
2019-04-28T13:14:38.137Z,90.90
2019-04-28T13:17:10.201Z,91.50
2019-04-28T13:19:42.033Z,93.00
2019-04-28T13:22:13.824Z,94.20
2019-04-28T13:24:42.643Z,95.30
2019-04-28T13:27:11.934Z,95.80
2019-04-28T13:29:44.571Z,96.40
2019-04-28T13:32:13.209Z,97.50
2019-04-28T13:34:42.369Z,96.50
2019-04-28T13:37:11.002Z,96.00
2019-04-28T13:39:41.323Z,95.90
2019-04-28T13:42:10.255Z,96.60
2019-04-28T13:44:50.732Z,97.40
2019-04-28T13:47:20.676Z,97.60
2019-04-28T13:49:51.114Z,98.90
2019-04-28T13:52:20.096Z,99.50
2019-04-28T13:54:50.401Z,99.90
2019-04-28T13:57:21.133Z,99.30
2019-04-28T13:59:54.813Z,99.90
2019-04-28T14:05:27.812Z,99.90
2019-04-28T14:07:56.397Z,99.90
2019-04-28T14:10:25.178Z,99.90
2019-04-28T14:12:55.165Z,99.90
2019-04-28T14:15:24.715Z,99.00
2019-04-28T14:17:53.507Z,99.20
2019-04-28T14:20:22.720Z,98.90
2019-04-28T14:22:52.165Z,98.50
2019-04-28T14:25:21.098Z,98.50
2019-04-28T14:27:49.713Z,98.60
2019-04-28T14:30:18.708Z,98.50
2019-04-28T14:32:47.455Z,99.90
2019-04-28T14:35:16.237Z,98.20
2019-04-28T14:37:49.148Z,97.80
2019-04-28T14:40:17.252Z,99.00
2019-04-28T14:42:53.665Z,99.70
2019-04-28T14:45:22.681Z,99.90
2019-04-28T14:47:51.446Z,99.90
2019-04-28T14:50:20.283Z,99.90
2019-04-28T14:52:48.809Z,99.90
2019-04-28T14:55:17.661Z,99.90
2019-04-28T14:57:46.239Z,99.90
2019-04-28T15:00:23.612Z,99.90
2019-04-28T15:02:59.452Z,99.90
2019-04-28T15:05:51.381Z,99.90
2019-04-28T15:08:39.725Z,99.90
2019-04-28T15:11:22.212Z,99.90
2019-04-28T15:13:51.153Z,99.90
2019-04-28T15:16:23.928Z,99.90
2019-04-28T15:18:52.504Z,99.90
2019-04-28T15:21:21.238Z,99.90
2019-04-28T15:23:50.009Z,99.90
2019-04-28T15:26:18.701Z,99.90
2019-04-28T15:28:47.433Z,99.90
2019-04-28T15:31:15.999Z,99.90
2019-04-28T15:33:47.655Z,99.90
2019-04-28T15:36:19.056Z,99.90
2019-04-28T15:38:51.325Z,99.70
2019-04-28T15:41:21.651Z,99.50
2019-04-28T15:43:56.541Z,98.10
2019-04-28T15:46:28.179Z,99.10
2019-04-28T15:48:56.875Z,99.70
2019-04-28T15:51:25.485Z,99.90
2019-04-28T15:53:54.381Z,99.90
2019-04-28T15:56:24.999Z,99.90
2019-04-28T15:58:56.615Z,99.90
2019-04-28T16:01:24.157Z,99.90
2019-04-28T16:03:52.909Z,99.90
2019-04-28T16:06:21.590Z,99.90
2019-04-28T16:08:50.127Z,99.90
2019-04-28T16:11:18.841Z,99.90
2019-04-28T16:13:47.463Z,99.90
2019-04-28T16:16:16.263Z,99.90
2019-04-28T16:18:44.813Z,99.90
2019-04-28T16:21:13.423Z,98.80
2019-04-28T16:23:47.717Z,97.20
2019-04-28T16:29:13.402Z,96.80
2019-04-28T16:31:41.911Z,99.50
2019-04-28T16:34:11.075Z,99.80
2019-04-28T16:36:39.662Z,99.90
2019-04-28T16:39:08.606Z,99.30
2019-04-28T16:41:52.256Z,97.80
2019-04-28T16:44:21.383Z,96.30
2019-04-28T16:46:50.218Z,96.40
2019-04-28T16:49:19.469Z,96.80
2019-04-28T16:51:48.117Z,98.30
2019-04-28T16:54:19.402Z,98.10
2019-04-28T16:57:05.863Z,96.40
2019-04-28T16:59:38.533Z,98.10
2019-04-28T17:02:17.359Z,99.70
2019-04-28T17:04:49.059Z,98.60
2019-04-28T17:07:17.736Z,97.10
2019-04-28T17:09:46.716Z,97.10
2019-04-28T17:12:20.959Z,96.90
2019-04-28T17:14:52.301Z,96.10
2019-04-28T17:17:21.295Z,94.40
2019-04-28T17:19:50.427Z,92.80
2019-04-28T17:22:19.114Z,93.80
2019-04-28T17:24:50.361Z,93.90
2019-04-28T17:27:19.039Z,90.10
2019-04-28T17:29:51.088Z,90.10
2019-04-28T17:32:18.775Z,91.40
2019-04-28T17:34:51.415Z,91.50
2019-04-28T17:37:20.389Z,92.60
2019-04-28T17:39:49.267Z,93.10
2019-04-28T17:42:18.135Z,91.40
2019-04-28T17:44:46.925Z,91.90
2019-04-28T17:47:17.340Z,91.70
2019-04-28T17:49:49.194Z,91.80
2019-04-28T17:52:18.140Z,92.10
2019-04-28T17:57:35.083Z,92.60
2019-04-28T18:00:13.042Z,93.20
2019-04-28T18:02:52.689Z,93.10
2019-04-28T18:05:30.286Z,93.60
2019-04-28T18:08:02.850Z,94.50
2019-04-28T18:13:51.361Z,95.80
2019-04-28T18:16:37.954Z,96.20
2019-04-28T18:19:26.473Z,96.80
2019-04-28T18:22:00.261Z,98.70
2019-04-28T18:24:29.300Z,99.80
2019-04-28T18:27:14.606Z,99.40
2019-04-28T18:29:44.456Z,99.60
2019-04-28T18:32:28.164Z,99.90
2019-04-28T18:35:01.583Z,99.90
2019-04-28T18:37:51.175Z,99.90
2019-04-28T18:43:20.252Z,99.90
2019-04-28T18:45:51.688Z,99.90
2019-04-28T18:48:20.431Z,99.90
2019-04-28T20:11:38.624Z,99.90
2019-04-28T20:14:50.005Z,99.90
2019-04-28T20:22:08.968Z,99.90
